Beniel, Spain
Current Conditions -  °F | °C
As of 10:00 PM on Thursday 20 Nov 2014 (Local Time) from LELC Reporting Station
Broken Clouds Broken Clouds  
Wind Chill: 64°   Ceiling: 1500
Heat Index: 64°   Visibility: 6mi
Dew Point: 61°   Wind: 20mph
Humidity: 88%   Direction: 30°NNE
Pressure: 30.06"   Gusts: NA
Location:  38.05°N, 1°W
Report Text: LELC 202100Z 03017KT 9999 BKN015 18/16 Q1018 NOSIG
Loading
Personal Weather Stations






























Interactive Weather Map New forecast layout! Learn more

10-Day Weather Forecast

Advertisements
Track Severe Weather on mobile